sensor_id;sensor_type;location;lat;lon;timestamp;pressure;altitude;pressure_sealevel;temperature;humidity
71964;BME280;59834;52.124;5.422;2023-12-20T00:01:00;101573.03;;;5.24;100.00
71964;BME280;59834;52.124;5.422;2023-12-20T00:03:26;101571.28;;;5.24;100.00
71964;BME280;59834;52.124;5.422;2023-12-20T00:05:53;101565.28;;;5.22;100.00
71964;BME280;59834;52.124;5.422;2023-12-20T00:08:19;101570.56;;;5.19;100.00
71964;BME280;59834;52.124;5.422;2023-12-20T00:10:46;101557.72;;;5.14;100.00
71964;BME280;59834;52.124;5.422;2023-12-20T00:13:12;101556.06;;;5.12;100.00
71964;BME280;59834;52.124;5.422;2023-12-20T00:15:39;101557.06;;;5.08;100.00
71964;BME280;59834;52.124;5.422;2023-12-20T00:18:06;101556.31;;;5.04;100.00
71964;BME280;59834;52.124;5.422;2023-12-20T00:20:32;101555.47;;;5.02;100.00
71964;BME280;59834;52.124;5.422;2023-12-20T00:22:59;101549.59;;;4.97;100.00
71964;BME280;59834;52.124;5.422;2023-12-20T00:25:25;101560.84;;;4.96;100.00
71964;BME280;59834;52.124;5.422;2023-12-20T00:27:52;101554.06;;;4.92;100.00
71964;BME280;59834;52.124;5.422;2023-12-20T00:30:18;101551.53;;;4.89;100.00
71964;BME280;59834;52.124;5.422;2023-12-20T00:32:45;101551.63;;;4.86;100.00
71964;BME280;59834;52.124;5.422;2023-12-20T00:35:15;101558.63;;;4.84;100.00
71964;BME280;59834;52.124;5.422;2023-12-20T00:37:43;101562.13;;;4.81;100.00
71964;BME280;59834;52.124;5.422;2023-12-20T00:40:10;101566.44;;;4.82;100.00
71964;BME280;59834;52.124;5.422;2023-12-20T00:42:37;101555.28;;;4.79;100.00
71964;BME280;59834;52.124;5.422;2023-12-20T00:45:04;101557.94;;;4.77;100.00
71964;BME280;59834;52.124;5.422;2023-12-20T00:47:31;101554.50;;;4.77;100.00
71964;BME280;59834;52.124;5.422;2023-12-20T00:49:58;101558.94;;;4.71;100.00
71964;BME280;59834;52.124;5.422;2023-12-20T00:52:25;101553.75;;;4.71;100.00
71964;BME280;59834;52.124;5.422;2023-12-20T00:54:51;101552.06;;;4.70;100.00
71964;BME280;59834;52.124;5.422;2023-12-20T00:57:18;101552.19;;;4.66;100.00
71964;BME280;59834;52.124;5.422;2023-12-20T00:59:45;101559.19;;;4.62;100.00
71964;BME280;59834;52.124;5.422;2023-12-20T01:02:11;101559.16;;;4.64;100.00
71964;BME280;59834;52.124;5.422;2023-12-20T01:04:38;101559.19;;;4.62;100.00
71964;BME280;59834;52.124;5.422;2023-12-20T01:07:04;101547.13;;;4.61;100.00
71964;BME280;59834;52.124;5.422;2023-12-20T01:09:32;101544.50;;;4.63;100.00
71964;BME280;59834;52.124;5.422;2023-12-20T01:11:58;101550.47;;;4.66;100.00
71964;BME280;59834;52.124;5.422;2023-12-20T01:14:25;101541.91;;;4.63;100.00
71964;BME280;59834;52.124;5.422;2023-12-20T01:16:51;101538.53;;;4.59;100.00
71964;BME280;59834;52.124;5.422;2023-12-20T01:19:18;101536.84;;;4.58;100.00
71964;BME280;59834;52.124;5.422;2023-12-20T01:21:44;101531.72;;;4.57;100.00
71964;BME280;59834;52.124;5.422;2023-12-20T01:24:11;101545.69;;;4.51;100.00
71964;BME280;59834;52.124;5.422;2023-12-20T01:26:37;101550.03;;;4.49;100.00
71964;BME280;59834;52.124;5.422;2023-12-20T01:29:04;101556.06;;;4.51;100.00
71964;BME280;59834;52.124;5.422;2023-12-20T01:31:30;101557.59;;;4.58;100.00
71964;BME280;59834;52.124;5.422;2023-12-20T01:33:57;101560.94;;;4.62;100.00
71964;BME280;59834;52.124;5.422;2023-12-20T01:36:24;101562.69;;;4.61;100.00
71964;BME280;59834;52.124;5.422;2023-12-20T01:38:50;101557.50;;;4.61;100.00
71964;BME280;59834;52.124;5.422;2023-12-20T01:41:17;101554.00;;;4.62;100.00
71964;BME280;59834;52.124;5.422;2023-12-20T01:43:43;101559.16;;;4.64;100.00
71964;BME280;59834;52.124;5.422;2023-12-20T01:46:17;101559.13;;;4.65;100.00
71964;BME280;59834;52.124;5.422;2023-12-20T01:48:44;101547.00;;;4.66;100.00
71964;BME280;59834;52.124;5.422;2023-12-20T01:51:11;101543.59;;;4.64;100.00
71964;BME280;59834;52.124;5.422;2023-12-20T01:53:39;101547.88;;;4.66;100.00
71964;BME280;59834;52.124;5.422;2023-12-20T01:56:08;101546.88;;;4.70;100.00
71964;BME280;59834;52.124;5.422;2023-12-20T01:58:39;101556.34;;;4.71;100.00
71964;BME280;59834;52.124;5.422;2023-12-20T02:01:10;101545.97;;;4.71;100.00
71964;BME280;59834;52.124;5.422;2023-12-20T02:03:37;101545.19;;;4.69;100.00
71964;BME280;59834;52.124;5.422;2023-12-20T02:06:04;101547.78;;;4.69;100.00
71964;BME280;59834;52.124;5.422;2023-12-20T02:08:31;101546.13;;;4.67;100.00
71964;BME280;59834;52.124;5.422;2023-12-20T02:10:58;101548.66;;;4.68;100.00
71964;BME280;59834;52.124;5.422;2023-12-20T02:13:24;101546.88;;;4.70;100.00
71964;BME280;59834;52.124;5.422;2023-12-20T02:15:54;101546.81;;;4.73;100.00
71964;BME280;59834;52.124;5.422;2023-12-20T02:18:22;101542.47;;;4.74;100.00
71964;BME280;59834;52.124;5.422;2023-12-20T02:20:48;101541.53;;;4.77;100.00
71964;BME280;59834;52.124;5.422;2023-12-20T02:23:15;101539.72;;;4.79;100.00
71964;BME280;59834;52.124;5.422;2023-12-20T02:25:41;101533.66;;;4.80;100.00
71964;BME280;59834;52.124;5.422;2023-12-20T02:28:08;101537.94;;;4.81;100.00
71964;BME280;59834;52.124;5.422;2023-12-20T02:30:35;101537.91;;;4.82;100.00
71964;BME280;59834;52.124;5.422;2023-12-20T02:33:03;101542.22;;;4.83;100.00
71964;BME280;59834;52.124;5.422;2023-12-20T02:35:34;101540.50;;;4.82;100.00
71964;BME280;59834;52.124;5.422;2023-12-20T02:38:01;101530.03;;;4.85;100.00
71964;BME280;59834;52.124;5.422;2023-12-20T02:40:27;101526.50;;;4.88;100.00
71964;BME280;59834;52.124;5.422;2023-12-20T02:42:54;101529.00;;;4.91;100.00
71964;BME280;59834;52.124;5.422;2023-12-20T02:45:20;101527.31;;;4.90;100.00
71964;BME280;59834;52.124;5.422;2023-12-20T02:47:47;101520.41;;;4.89;100.00
71964;BME280;59834;52.124;5.422;2023-12-20T02:50:14;101517.72;;;4.92;100.00
71964;BME280;59834;52.124;5.422;2023-12-20T02:52:44;101509.88;;;4.95;100.00
71964;BME280;59834;52.124;5.422;2023-12-20T02:55:11;101515.91;;;4.95;100.00
71964;BME280;59834;52.124;5.422;2023-12-20T02:57:37;101515.97;;;4.94;100.00
71964;BME280;59834;52.124;5.422;2023-12-20T03:00:09;101512.63;;;4.89;100.00
71964;BME280;59834;52.124;5.422;2023-12-20T03:02:36;101508.34;;;4.88;100.00
71964;BME280;59834;52.124;5.422;2023-12-20T03:05:03;101502.41;;;4.84;100.00
71964;BME280;59834;52.124;5.422;2023-12-20T03:07:30;101513.53;;;4.88;100.00
71964;BME280;59834;52.124;5.422;2023-12-20T03:09:56;101513.44;;;4.91;100.00
71964;BME280;59834;52.124;5.422;2023-12-20T03:12:43;101503.91;;;4.91;100.00
71964;BME280;59834;52.124;5.422;2023-12-20T03:15:10;101509.09;;;4.91;100.00
71964;BME280;59834;52.124;5.422;2023-12-20T03:17:37;101508.09;;;4.97;100.00
71964;BME280;59834;52.124;5.422;2023-12-20T03:20:04;101500.97;;;5.04;100.00
71964;BME280;59834;52.124;5.422;2023-12-20T03:22:30;101504.41;;;5.04;100.00
71964;BME280;59834;52.124;5.422;2023-12-20T03:24:57;101496.72;;;5.01;100.00
71964;BME280;59834;52.124;5.422;2023-12-20T03:27:24;101488.22;;;4.96;100.00
71964;BME280;59834;52.124;5.422;2023-12-20T03:29:50;101482.16;;;4.95;100.00
71964;BME280;59834;52.124;5.422;2023-12-20T03:32:16;101483.00;;;4.97;100.00
71964;BME280;59834;52.124;5.422;2023-12-20T03:34:44;101488.19;;;4.97;100.00
71964;BME280;59834;52.124;5.422;2023-12-20T03:37:10;101483.75;;;5.01;100.00
71964;BME280;59834;52.124;5.422;2023-12-20T03:39:37;101487.91;;;5.07;100.00
71964;BME280;59834;52.124;5.422;2023-12-20T03:42:04;101492.03;;;5.12;100.00
71964;BME280;59834;52.124;5.422;2023-12-20T03:44:30;101488.56;;;5.13;100.00
71964;BME280;59834;52.124;5.422;2023-12-20T03:46:57;101488.47;;;5.16;100.00
71964;BME280;59834;52.124;5.422;2023-12-20T03:49:23;101487.50;;;5.19;100.00
71964;BME280;59834;52.124;5.422;2023-12-20T03:51:50;101496.16;;;5.19;100.00
71964;BME280;59834;52.124;5.422;2023-12-20T03:54:16;101497.06;;;5.18;100.00
71964;BME280;59834;52.124;5.422;2023-12-20T03:56:43;101493.75;;;5.13;100.00
71964;BME280;59834;52.124;5.422;2023-12-20T03:59:09;101493.00;;;5.10;100.00
71964;BME280;59834;52.124;5.422;2023-12-20T04:01:36;101488.69;;;5.09;100.00
71964;BME280;59834;52.124;5.422;2023-12-20T04:04:02;101480.78;;;5.13;100.00
71964;BME280;59834;52.124;5.422;2023-12-20T04:06:29;101490.25;;;5.14;100.00
71964;BME280;59834;52.124;5.422;2023-12-20T04:08:56;101484.88;;;5.20;100.00
71964;BME280;59834;52.124;5.422;2023-12-20T04:11:22;101486.50;;;5.25;100.00
71964;BME280;59834;52.124;5.422;2023-12-20T04:13:49;101482.81;;;5.32;100.00
71964;BME280;59834;52.124;5.422;2023-12-20T04:16:15;101483.56;;;5.35;100.00
71964;BME280;59834;52.124;5.422;2023-12-20T04:18:42;101474.00;;;5.36;100.00
71964;BME280;59834;52.124;5.422;2023-12-20T04:21:09;101468.81;;;5.36;100.00
71964;BME280;59834;52.124;5.422;2023-12-20T04:23:35;101468.81;;;5.36;100.00
71964;BME280;59834;52.124;5.422;2023-12-20T04:26:02;101473.13;;;5.37;100.00
71964;BME280;59834;52.124;5.422;2023-12-20T04:28:28;101468.72;;;5.39;100.00
71964;BME280;59834;52.124;5.422;2023-12-20T04:30:56;101468.63;;;5.42;100.00
71964;BME280;59834;52.124;5.422;2023-12-20T04:33:23;101484.88;;;5.49;100.00
71964;BME280;59834;52.124;5.422;2023-12-20T04:35:50;101484.69;;;5.53;100.00
71964;BME280;59834;52.124;5.422;2023-12-20T04:38:16;101484.66;;;5.55;100.00
71964;BME280;59834;52.124;5.422;2023-12-20T04:40:43;101481.88;;;5.61;100.00
71964;BME280;59834;52.124;5.422;2023-12-20T04:43:09;101480.13;;;5.61;100.00
71964;BME280;59834;52.124;5.422;2023-12-20T04:45:36;101473.25;;;5.60;100.00
71964;BME280;59834;52.124;5.422;2023-12-20T04:48:03;101470.56;;;5.63;100.00
71964;BME280;59834;52.124;5.422;2023-12-20T04:50:30;101473.94;;;5.65;100.00
71964;BME280;59834;52.124;5.422;2023-12-20T04:52:57;101474.75;;;5.67;100.00
71964;BME280;59834;52.124;5.422;2023-12-20T04:55:23;101471.03;;;5.75;100.00
71964;BME280;59834;52.124;5.422;2023-12-20T04:57:50;101473.56;;;5.76;100.00
71964;BME280;59834;52.124;5.422;2023-12-20T05:00:17;101465.75;;;5.78;100.00
71964;BME280;59834;52.124;5.422;2023-12-20T05:02:44;101463.03;;;5.81;100.00
71964;BME280;59834;52.124;5.422;2023-12-20T05:05:10;101460.38;;;5.82;100.00
71964;BME280;59834;52.124;5.422;2023-12-20T05:07:37;101461.19;;;5.84;100.00
71964;BME280;59834;52.124;5.422;2023-12-20T05:10:04;101461.13;;;5.86;100.00
71964;BME280;59834;52.124;5.422;2023-12-20T05:12:31;101463.72;;;5.86;100.00
71964;BME280;59834;52.124;5.422;2023-12-20T05:14:58;101469.66;;;5.89;100.00
71964;BME280;59834;52.124;5.422;2023-12-20T05:17:24;101460.09;;;5.90;100.00
71964;BME280;59834;52.124;5.422;2023-12-20T05:19:51;101463.63;;;5.89;100.00
71964;BME280;59834;52.124;5.422;2023-12-20T05:22:19;101467.13;;;5.88;100.00
71964;BME280;59834;52.124;5.422;2023-12-20T05:24:46;101463.63;;;5.89;100.00
71964;BME280;59834;52.124;5.422;2023-12-20T05:27:13;101473.91;;;5.92;100.00
71964;BME280;59834;52.124;5.422;2023-12-20T05:29:39;101469.63;;;5.91;100.00
71964;BME280;59834;52.124;5.422;2023-12-20T05:32:06;101473.91;;;5.92;100.00
71964;BME280;59834;52.124;5.422;2023-12-20T05:34:33;101482.66;;;5.89;100.00
71964;BME280;59834;52.124;5.422;2023-12-20T05:36:59;101470.50;;;5.90;100.00
71964;BME280;59834;52.124;5.422;2023-12-20T05:39:28;101466.19;;;5.90;100.00
71964;BME280;59834;52.124;5.422;2023-12-20T05:41:54;101466.97;;;5.94;100.00
71964;BME280;59834;52.124;5.422;2023-12-20T05:44:21;101468.66;;;5.95;100.00
71964;BME280;59834;52.124;5.422;2023-12-20T05:46:47;101466.97;;;5.94;100.00
71964;BME280;59834;52.124;5.422;2023-12-20T05:49:14;101460.84;;;5.95;100.00
71964;BME280;59834;52.124;5.422;2023-12-20T05:51:40;101464.19;;;5.99;100.00
71964;BME280;59834;52.124;5.422;2023-12-20T05:54:08;101464.19;;;5.99;100.00
71964;BME280;59834;52.124;5.422;2023-12-20T05:56:35;101457.31;;;5.98;100.00
71964;BME280;59834;52.124;5.422;2023-12-20T05:59:01;101466.88;;;5.96;100.00
71964;BME280;59834;52.124;5.422;2023-12-20T06:01:28;101465.13;;;5.96;100.00
71964;BME280;59834;52.124;5.422;2023-12-20T06:03:55;101464.19;;;5.99;100.00
71964;BME280;59834;52.124;5.422;2023-12-20T06:06:23;101457.25;;;5.99;100.00
71964;BME280;59834;52.124;5.422;2023-12-20T06:08:50;101463.25;;;6.01;100.00
71964;BME280;59834;52.124;5.422;2023-12-20T06:11:17;101473.53;;;6.04;100.00
71964;BME280;59834;52.124;5.422;2023-12-20T06:13:43;101466.63;;;6.03;100.00
71964;BME280;59834;52.124;5.422;2023-12-20T06:16:10;101459.69;;;6.04;100.00
71964;BME280;59834;52.124;5.422;2023-12-20T06:18:36;101463.91;;;6.06;100.00
71964;BME280;59834;52.124;5.422;2023-12-20T06:21:04;101464.72;;;6.08;100.00
71964;BME280;59834;52.124;5.422;2023-12-20T06:23:30;101455.16;;;6.09;100.00
71964;BME280;59834;52.124;5.422;2023-12-20T06:25:57;101449.88;;;6.12;100.00
71964;BME280;59834;52.124;5.422;2023-12-20T06:28:24;101458.47;;;6.14;100.00
71964;BME280;59834;52.124;5.422;2023-12-20T06:30:50;101448.91;;;6.14;100.00
71964;BME280;59834;52.124;5.422;2023-12-20T06:33:19;101458.38;;;6.17;100.00
71964;BME280;59834;52.124;5.422;2023-12-20T06:35:48;101455.69;;;6.19;100.00
71964;BME280;59834;52.124;5.422;2023-12-20T06:38:15;101451.34;;;6.19;100.00
71964;BME280;59834;52.124;5.422;2023-12-20T06:40:41;101447.91;;;6.19;100.00
71964;BME280;59834;52.124;5.422;2023-12-20T06:43:09;101454.84;;;6.18;100.00
71964;BME280;59834;52.124;5.422;2023-12-20T06:45:49;101453.03;;;6.20;100.00
71964;BME280;59834;52.124;5.422;2023-12-20T06:48:15;101450.41;;;6.22;100.00
71964;BME280;59834;52.124;5.422;2023-12-20T06:50:42;101441.69;;;6.23;100.00
71964;BME280;59834;52.124;5.422;2023-12-20T06:53:09;101441.69;;;6.23;100.00
71964;BME280;59834;52.124;5.422;2023-12-20T06:55:35;101421.72;;;6.23;100.00
71964;BME280;59834;52.124;5.422;2023-12-20T06:58:03;101437.34;;;6.23;100.00
71964;BME280;59834;52.124;5.422;2023-12-20T07:00:30;101440.81;;;6.24;100.00
71964;BME280;59834;52.124;5.422;2023-12-20T07:02:57;101437.41;;;6.22;100.00
71964;BME280;59834;52.124;5.422;2023-12-20T07:05:24;101437.44;;;6.20;100.00
71964;BME280;59834;52.124;5.422;2023-12-20T07:07:50;101434.81;;;6.22;100.00
71964;BME280;59834;52.124;5.422;2023-12-20T07:10:17;101438.31;;;6.21;100.00
71964;BME280;59834;52.124;5.422;2023-12-20T07:12:44;101441.69;;;6.23;100.00
71964;BME280;59834;52.124;5.422;2023-12-20T07:15:11;101448.47;;;6.27;100.00
71964;BME280;59834;52.124;5.422;2023-12-20T07:17:38;101437.97;;;6.30;100.00
71964;BME280;59834;52.124;5.422;2023-12-20T07:20:05;101437.97;;;6.30;100.00
71964;BME280;59834;52.124;5.422;2023-12-20T07:22:33;101429.38;;;6.28;100.00
71964;BME280;59834;52.124;5.422;2023-12-20T07:25:00;101429.38;;;6.28;100.00
71964;BME280;59834;52.124;5.422;2023-12-20T07:27:27;101436.28;;;6.29;100.00
71964;BME280;59834;52.124;5.422;2023-12-20T07:29:54;101428.53;;;6.27;100.00
71964;BME280;59834;52.124;5.422;2023-12-20T07:32:20;101431.91;;;6.29;100.00
71964;BME280;59834;52.124;5.422;2023-12-20T07:34:47;101421.47;;;6.31;100.00
71964;BME280;59834;52.124;5.422;2023-12-20T07:37:14;101425.66;;;6.35;100.00
71964;BME280;59834;52.124;5.422;2023-12-20T07:39:41;101416.94;;;6.36;100.00
71964;BME280;59834;52.124;5.422;2023-12-20T07:42:08;101422.03;;;6.39;100.00
71964;BME280;59834;52.124;5.422;2023-12-20T07:44:35;101422.03;;;6.39;100.00
71964;BME280;59834;52.124;5.422;2023-12-20T07:47:04;101422.84;;;6.41;100.00
71964;BME280;59834;52.124;5.422;2023-12-20T07:49:31;101429.72;;;6.42;100.00
71964;BME280;59834;52.124;5.422;2023-12-20T07:51:58;101431.47;;;6.42;100.00
71964;BME280;59834;52.124;5.422;2023-12-20T07:54:25;101440.94;;;6.44;100.00
71964;BME280;59834;52.124;5.422;2023-12-20T07:56:52;101444.38;;;6.45;100.00
71964;BME280;59834;52.124;5.422;2023-12-20T07:59:18;101438.34;;;6.44;100.00
71964;BME280;59834;52.124;5.422;2023-12-20T08:01:57;101451.22;;;6.47;100.00
71964;BME280;59834;52.124;5.422;2023-12-20T08:04:25;101450.34;;;6.47;100.00
71964;BME280;59834;52.124;5.422;2023-12-20T08:06:52;101453.03;;;6.45;100.00
71964;BME280;59834;52.124;5.422;2023-12-20T08:09:23;101456.47;;;6.46;100.00
71964;BME280;59834;52.124;5.422;2023-12-20T08:12:38;101461.47;;;6.50;100.00
71964;BME280;59834;52.124;5.422;2023-12-20T08:15:12;101462.41;;;6.49;100.00
71964;BME280;59834;52.124;5.422;2023-12-20T08:17:39;101458.88;;;6.50;100.00
71964;BME280;59834;52.124;5.422;2023-12-20T08:20:06;101452.81;;;6.51;100.00
71964;BME280;59834;52.124;5.422;2023-12-20T08:22:33;101460.53;;;6.53;100.00
71964;BME280;59834;52.124;5.422;2023-12-20T08:25:00;101449.28;;;6.52;100.00
71964;BME280;59834;52.124;5.422;2023-12-20T08:27:28;101443.13;;;6.55;100.00
71964;BME280;59834;52.124;5.422;2023-12-20T08:29:55;101443.06;;;6.56;100.00
71964;BME280;59834;52.124;5.422;2023-12-20T08:32:25;101441.25;;;6.58;100.00
71964;BME280;59834;52.124;5.422;2023-12-20T08:34:52;101443.75;;;6.61;100.00
71964;BME280;59834;52.124;5.422;2023-12-20T08:37:21;101441.16;;;6.61;100.00
71964;BME280;59834;52.124;5.422;2023-12-20T08:39:50;101435.00;;;6.64;100.00
71964;BME280;59834;52.124;5.422;2023-12-20T08:42:17;101436.72;;;6.64;100.00
71964;BME280;59834;52.124;5.422;2023-12-20T08:44:43;101434.91;;;6.66;100.00
71964;BME280;59834;52.124;5.422;2023-12-20T08:47:10;101441.81;;;6.67;100.00
71964;BME280;59834;52.124;5.422;2023-12-20T08:49:39;101445.31;;;6.66;100.00
71964;BME280;59834;52.124;5.422;2023-12-20T08:52:06;101437.53;;;6.66;100.00
71964;BME280;59834;52.124;5.422;2023-12-20T08:54:36;101430.63;;;6.65;100.00
71964;BME280;59834;52.124;5.422;2023-12-20T08:57:03;101447.00;;;6.67;100.00
71964;BME280;59834;52.124;5.422;2023-12-20T08:59:30;101443.56;;;6.66;100.00
71964;BME280;59834;52.124;5.422;2023-12-20T09:01:59;101439.41;;;6.62;100.00
71964;BME280;59834;52.124;5.422;2023-12-20T09:04:25;101435.94;;;6.61;100.00
71964;BME280;59834;52.124;5.422;2023-12-20T09:06:53;101442.00;;;6.62;100.00
71964;BME280;59834;52.124;5.422;2023-12-20T09:09:19;101435.94;;;6.61;100.00
71964;BME280;59834;52.124;5.422;2023-12-20T09:11:51;101440.34;;;6.59;100.00
71964;BME280;59834;52.124;5.422;2023-12-20T09:14:19;101439.50;;;6.59;100.00
71964;BME280;59834;52.124;5.422;2023-12-20T09:16:45;101447.38;;;6.57;100.00
71964;BME280;59834;52.124;5.422;2023-12-20T09:19:14;101428.38;;;6.55;100.00
71964;BME280;59834;52.124;5.422;2023-12-20T09:21:40;101424.84;;;6.56;100.00
71964;BME280;59834;52.124;5.422;2023-12-20T09:24:07;101428.19;;;6.60;100.00
71964;BME280;59834;52.124;5.422;2023-12-20T09:26:35;101429.81;;;6.63;100.00
71964;BME280;59834;52.124;5.422;2023-12-20T09:29:01;101433.22;;;6.65;100.00
71964;BME280;59834;52.124;5.422;2023-12-20T09:31:29;101433.91;;;6.70;100.00
71964;BME280;59834;52.124;5.422;2023-12-20T09:33:56;101437.22;;;6.73;100.00
71964;BME280;59834;52.124;5.422;2023-12-20T09:36:23;101424.09;;;6.76;100.00
71964;BME280;59834;52.124;5.422;2023-12-20T09:38:51;101428.28;;;6.80;100.00
71964;BME280;59834;52.124;5.422;2023-12-20T09:41:20;101436.69;;;6.87;100.00
71964;BME280;59834;52.124;5.422;2023-12-20T09:43:48;101426.13;;;6.92;100.00
71964;BME280;59834;52.124;5.422;2023-12-20T09:46:17;101432.09;;;6.94;100.00
71964;BME280;59834;52.124;5.422;2023-12-20T09:48:51;101436.34;;;6.96;100.00
71964;BME280;59834;52.124;5.422;2023-12-20T09:51:18;101446.53;;;7.02;100.00
71964;BME280;59834;52.124;5.422;2023-12-20T09:53:47;101438.53;;;7.07;100.00
71964;BME280;59834;52.124;5.422;2023-12-20T09:56:15;101435.75;;;7.12;100.00
71964;BME280;59834;52.124;5.422;2023-12-20T09:58:43;101433.81;;;7.17;100.00
71964;BME280;59834;52.124;5.422;2023-12-20T10:01:10;101432.78;;;7.21;100.00
71964;BME280;59834;52.124;5.422;2023-12-20T10:03:39;101432.66;;;7.24;100.00
71964;BME280;59834;52.124;5.422;2023-12-20T10:06:06;101440.28;;;7.28;100.00
71964;BME280;59834;52.124;5.422;2023-12-20T10:08:34;101440.09;;;7.33;100.00
71964;BME280;59834;52.124;5.422;2023-12-20T10:11:00;101452.91;;;7.38;100.00
71964;BME280;59834;52.124;5.422;2023-12-20T10:13:29;101456.28;;;7.41;100.00
71964;BME280;59834;52.124;5.422;2023-12-20T10:15:56;101450.19;;;7.41;100.00
71964;BME280;59834;52.124;5.422;2023-12-20T10:18:24;101453.69;;;7.41;100.00
71964;BME280;59834;52.124;5.422;2023-12-20T10:21:02;101449.31;;;7.42;100.00
71964;BME280;59834;52.124;5.422;2023-12-20T10:23:30;101456.28;;;7.41;100.00
71964;BME280;59834;52.124;5.422;2023-12-20T10:26:00;101455.41;;;7.41;100.00
71964;BME280;59834;52.124;5.422;2023-12-20T10:28:28;101445.88;;;7.41;100.00
71964;BME280;59834;52.124;5.422;2023-12-20T10:30:59;101434.41;;;7.45;100.00
71964;BME280;59834;52.124;5.422;2023-12-20T10:33:30;101434.16;;;7.51;100.00
71964;BME280;59834;52.124;5.422;2023-12-20T10:35:59;101439.25;;;7.54;100.00
71964;BME280;59834;52.124;5.422;2023-12-20T10:38:26;101434.75;;;7.58;100.00
71964;BME280;59834;52.124;5.422;2023-12-20T10:40:56;101433.00;;;7.59;100.00
71964;BME280;59834;52.124;5.422;2023-12-20T10:43:26;101428.75;;;7.56;100.00
71964;BME280;59834;52.124;5.422;2023-12-20T10:45:54;101430.38;;;7.59;100.00
71964;BME280;59834;52.124;5.422;2023-12-20T10:48:21;101425.81;;;7.64;100.00
71964;BME280;59834;52.124;5.422;2023-12-20T10:50:55;101429.97;;;7.68;100.00
71964;BME280;59834;52.124;5.422;2023-12-20T10:53:24;101422.16;;;7.68;100.00
71964;BME280;59834;52.124;5.422;2023-12-20T10:55:52;101416.91;;;7.69;100.00
71964;BME280;59834;52.124;5.422;2023-12-20T10:58:22;101415.09;;;7.71;100.00
71964;BME280;59834;52.124;5.422;2023-12-20T11:00:52;101418.41;;;7.75;100.00
71964;BME280;59834;52.124;5.422;2023-12-20T11:03:25;101414.88;;;7.76;100.00
71964;BME280;59834;52.124;5.422;2023-12-20T11:06:01;101409.47;;;7.80;100.00
71964;BME280;59834;52.124;5.422;2023-12-20T11:08:41;101409.28;;;7.85;100.00
71964;BME280;59834;52.124;5.422;2023-12-20T11:11:18;101410.91;;;7.88;100.00
71964;BME280;59834;52.124;5.422;2023-12-20T11:14:06;101396.53;;;7.98;100.00
71964;BME280;59834;52.124;5.422;2023-12-20T11:16:37;101395.31;;;8.07;100.00
71964;BME280;59834;52.124;5.422;2023-12-20T11:19:17;101404.75;;;8.09;100.00
71964;BME280;59834;52.124;5.422;2023-12-20T11:21:46;101396.03;;;8.10;100.00
71964;BME280;59834;52.124;5.422;2023-12-20T11:24:13;101389.16;;;8.08;100.00
71964;BME280;59834;52.124;5.422;2023-12-20T11:26:46;101381.66;;;8.01;100.00
71964;BME280;59834;52.124;5.422;2023-12-20T11:29:34;101374.81;;;7.99;100.00
71964;BME280;59834;52.124;5.422;2023-12-20T11:35:27;101381.59;;;8.22;100.00
71964;BME280;59834;52.124;5.422;2023-12-20T11:37:47;101381.03;;;8.34;100.00
71964;BME280;59834;52.124;5.422;2023-12-20T11:40:18;101384.31;;;8.39;100.00
71964;BME280;59834;52.124;5.422;2023-12-20T11:42:49;101378.03;;;8.43;100.00
71964;BME280;59834;52.124;5.422;2023-12-20T11:45:21;101375.81;;;8.34;100.00
71964;BME280;59834;52.124;5.422;2023-12-20T11:47:51;101372.59;;;8.29;100.00
71964;BME280;59834;52.124;5.422;2023-12-20T11:50:19;101363.97;;;8.27;100.00
71964;BME280;59834;52.124;5.422;2023-12-20T11:52:47;101358.84;;;8.25;100.00
71964;BME280;59834;52.124;5.422;2023-12-20T11:55:15;101353.63;;;8.25;100.00
71964;BME280;59834;52.124;5.422;2023-12-20T11:57:43;101352.63;;;8.28;100.00
71964;BME280;59834;52.124;5.422;2023-12-20T12:00:11;101348.28;;;8.29;100.00
71964;BME280;59834;52.124;5.422;2023-12-20T12:02:37;101349.09;;;8.29;100.00
71964;BME280;59834;52.124;5.422;2023-12-20T12:05:04;101355.97;;;8.32;100.00
71964;BME280;59834;52.124;5.422;2023-12-20T12:07:33;101355.22;;;8.28;100.00
71964;BME280;59834;52.124;5.422;2023-12-20T12:10:01;101348.31;;;8.27;100.00
71964;BME280;59834;52.124;5.422;2023-12-20T12:12:28;101353.53;;;8.27;100.00
71964;BME280;59834;52.124;5.422;2023-12-20T12:14:56;101357.91;;;8.26;100.00
71964;BME280;59834;52.124;5.422;2023-12-20T12:17:30;101364.81;;;8.27;100.00
71964;BME280;59834;52.124;5.422;2023-12-20T12:20:03;101357.06;;;8.26;100.00
71964;BME280;59834;52.124;5.422;2023-12-20T12:22:31;101370.88;;;8.28;100.00
71964;BME280;59834;52.124;5.422;2023-12-20T12:24:59;101359.53;;;8.29;100.00
71964;BME280;59834;52.124;5.422;2023-12-20T12:27:35;101360.25;;;8.33;100.00
71964;BME280;59834;52.124;5.422;2023-12-20T12:30:03;101352.19;;;8.37;100.00
71964;BME280;59834;52.124;5.422;2023-12-20T12:32:31;101343.53;;;8.37;100.00
71964;BME280;59834;52.124;5.422;2023-12-20T12:34:59;101339.25;;;8.36;100.00
71964;BME280;59834;52.124;5.422;2023-12-20T12:37:25;101332.41;;;8.33;100.00
71964;BME280;59834;52.124;5.422;2023-12-20T12:39:53;101329.00;;;8.31;100.00
71964;BME280;59834;52.124;5.422;2023-12-20T12:42:21;101338.53;;;8.32;100.00
71964;BME280;59834;52.124;5.422;2023-12-20T12:44:48;101328.25;;;8.29;100.00
71964;BME280;59834;52.124;5.422;2023-12-20T12:47:15;101320.41;;;8.29;100.00
71964;BME280;59834;52.124;5.422;2023-12-20T12:49:42;101315.25;;;8.27;100.00
71964;BME280;59834;52.124;5.422;2023-12-20T12:52:09;101318.72;;;8.28;100.00
71964;BME280;59834;52.124;5.422;2023-12-20T12:54:35;101310.00;;;8.29;100.00
71964;BME280;59834;52.124;5.422;2023-12-20T12:57:03;101326.53;;;8.28;100.00